createdAt,value
2023-01-10T00:01:57.749Z,187.40
2023-01-10T00:04:27.254Z,182.98
2023-01-10T00:06:55.506Z,178.48
2023-01-10T00:09:24.741Z,167.85
2023-01-10T00:12:10.514Z,185.18
2023-01-10T00:14:39.004Z,166.25
2023-01-10T00:17:07.143Z,161.02
2023-01-10T00:19:34.904Z,170.70
2023-01-10T00:22:12.507Z,159.77
2023-01-10T00:24:42.964Z,166.68
2023-01-10T00:27:16.177Z,166.57
2023-01-10T00:29:43.872Z,176.70
2023-01-10T00:32:11.811Z,167.20
2023-01-10T00:34:39.629Z,189.02
2023-01-10T00:37:07.627Z,163.60
2023-01-10T00:39:35.376Z,200.75
2023-01-10T00:42:23.029Z,190.55
2023-01-10T00:44:51.401Z,171.73
2023-01-10T00:47:19.574Z,172.32
2023-01-10T00:49:47.373Z,171.25
2023-01-10T00:52:15.447Z,166.18
2023-01-10T00:54:43.283Z,185.50
2023-01-10T00:57:12.729Z,217.00
2023-01-10T00:59:40.573Z,164.43
2023-01-10T01:02:08.857Z,146.20
2023-01-10T01:04:36.623Z,120.95
2023-01-10T01:07:04.722Z,121.35
2023-01-10T01:09:32.510Z,122.38
2023-01-10T01:12:00.560Z,115.30
2023-01-10T01:14:29.792Z,112.78
2023-01-10T01:16:57.896Z,104.68
2023-01-10T01:19:25.753Z,83.03
2023-01-10T01:21:53.603Z,86.90
2023-01-10T01:24:22.750Z,89.45
2023-01-10T01:26:50.464Z,93.57
2023-01-10T01:29:18.611Z,90.57
2023-01-10T01:31:47.887Z,86.72
2023-01-10T01:34:16.276Z,91.75
2023-01-10T01:36:44.114Z,87.30
2023-01-10T01:39:12.628Z,86.00
2023-01-10T01:41:58.486Z,78.85
2023-01-10T01:44:31.714Z,74.03
2023-01-10T01:47:07.257Z,64.88
2023-01-10T01:49:39.738Z,64.13
2023-01-10T01:52:12.833Z,70.43
2023-01-10T01:54:41.416Z,69.40
2023-01-10T01:57:14.889Z,65.93
2023-01-10T01:59:45.906Z,75.78
2023-01-10T02:02:20.455Z,70.03
2023-01-10T02:04:53.650Z,82.40
2023-01-10T02:07:22.969Z,77.47
2023-01-10T02:09:54.992Z,81.53
2023-01-10T02:12:24.049Z,75.20
2023-01-10T02:14:53.790Z,92.13
2023-01-10T02:17:22.818Z,83.97
2023-01-10T02:19:54.898Z,81.65
2023-01-10T02:22:59.600Z,90.40
2023-01-10T02:26:01.051Z,102.18
2023-01-10T02:28:56.463Z,94.25
2023-01-10T02:31:38.048Z,254.05
2023-01-10T02:34:14.423Z,127.72
2023-01-10T02:36:51.958Z,99.28
2023-01-10T02:39:25.191Z,120.18
2023-01-10T02:42:00.681Z,140.35
2023-01-10T02:44:35.662Z,171.20
2023-01-10T02:47:05.357Z,196.30
2023-01-10T02:49:44.594Z,137.60
2023-01-10T02:52:15.013Z,169.32
2023-01-10T02:54:43.394Z,225.98
2023-01-10T02:57:38.041Z,209.07
2023-01-10T03:00:35.935Z,116.85
2023-01-10T03:03:15.942Z,109.30
2023-01-10T03:05:56.987Z,119.82
2023-01-10T03:08:31.770Z,118.35
2023-01-10T03:11:02.371Z,117.93
2023-01-10T03:13:38.559Z,123.35
2023-01-10T03:16:10.692Z,130.60
2023-01-10T03:21:12.934Z,99.77
2023-01-10T03:23:41.759Z,236.23
2023-01-10T03:26:12.461Z,162.98
2023-01-10T03:28:48.085Z,610.92
2023-01-10T03:31:19.880Z,164.90
2023-01-10T03:36:27.990Z,183.02
2023-01-10T03:38:58.011Z,193.55
2023-01-10T03:41:36.696Z,175.80
2023-01-10T03:44:31.769Z,162.52
2023-01-10T03:47:04.647Z,148.40
2023-01-10T03:49:34.464Z,153.10
2023-01-10T03:52:05.667Z,348.98
2023-01-10T03:54:33.985Z,248.73
2023-01-10T03:57:02.848Z,165.77
2023-01-10T03:59:31.108Z,100.50
2023-01-10T04:01:59.099Z,91.97
2023-01-10T04:04:27.256Z,90.25
2023-01-10T04:06:55.078Z,92.90
2023-01-10T04:09:24.789Z,85.00
2023-01-10T04:11:52.529Z,90.25
2023-01-10T04:14:20.733Z,83.10
2023-01-10T04:16:48.609Z,85.70
2023-01-10T04:19:16.659Z,76.60
2023-01-10T04:21:44.548Z,71.22
2023-01-10T04:24:13.263Z,65.45
2023-01-10T04:26:42.312Z,68.70
2023-01-10T04:29:10.344Z,67.22
2023-01-10T04:31:39.943Z,63.60
2023-01-10T04:34:08.069Z,55.58
2023-01-10T04:36:36.610Z,54.60
2023-01-10T04:39:05.563Z,56.47
2023-01-10T04:41:33.328Z,62.40
2023-01-10T04:44:02.887Z,61.25
2023-01-10T04:46:30.731Z,60.83
2023-01-10T04:48:59.252Z,56.63
2023-01-10T04:51:27.238Z,29.90
2023-01-10T04:53:56.171Z,40.80
2023-01-10T04:56:24.683Z,38.95
2023-01-10T04:58:54.076Z,27.95
2023-01-10T05:01:25.453Z,33.13
2023-01-10T05:03:56.102Z,38.17
2023-01-10T05:06:25.261Z,47.33
2023-01-10T05:08:53.309Z,45.90
2023-01-10T05:11:21.116Z,56.28
2023-01-10T05:13:49.414Z,53.83
2023-01-10T05:16:17.859Z,57.30
2023-01-10T05:18:47.406Z,56.83
2023-01-10T05:21:15.578Z,48.08
2023-01-10T05:23:43.759Z,28.80
2023-01-10T05:26:13.611Z,24.08
2023-01-10T05:28:42.645Z,20.42
2023-01-10T05:31:13.365Z,18.35
2023-01-10T05:33:44.446Z,19.50
2023-01-10T05:36:14.122Z,19.65
2023-01-10T05:38:42.076Z,15.75
2023-01-10T05:41:09.883Z,14.18
2023-01-10T05:43:38.350Z,13.07
2023-01-10T05:46:06.326Z,16.85
2023-01-10T05:48:34.383Z,16.30
2023-01-10T05:51:02.357Z,18.52
2023-01-10T05:53:31.672Z,23.27
2023-01-10T05:56:01.698Z,22.60
2023-01-10T05:58:30.634Z,19.50
2023-01-10T06:00:59.257Z,22.20
2023-01-10T06:03:27.688Z,21.48
2023-01-10T06:05:56.188Z,23.05
2023-01-10T06:08:25.306Z,22.92
2023-01-10T06:10:54.474Z,26.70
2023-01-10T06:13:22.984Z,15.75
2023-01-10T06:15:51.298Z,18.70
2023-01-10T06:18:19.360Z,19.63
2023-01-10T06:20:47.434Z,16.92
2023-01-10T06:23:16.068Z,21.17
2023-01-10T06:25:44.129Z,19.70
2023-01-10T06:28:14.947Z,16.13
2023-01-10T06:30:44.194Z,15.75
2023-01-10T06:33:13.085Z,16.85
2023-01-10T06:35:41.471Z,16.65
2023-01-10T06:38:09.617Z,16.13
2023-01-10T06:40:37.422Z,14.93
2023-01-10T06:43:05.521Z,16.67
2023-01-10T06:45:34.766Z,11.13
2023-01-10T06:48:03.045Z,8.00
2023-01-10T06:50:31.768Z,9.70
2023-01-10T06:53:01.804Z,11.02
2023-01-10T06:55:30.622Z,11.55
2023-01-10T06:58:00.615Z,13.38
2023-01-10T07:00:29.898Z,15.57
2023-01-10T07:03:01.198Z,17.98
2023-01-10T07:05:30.516Z,13.27
2023-01-10T07:08:01.170Z,9.07
2023-01-10T07:10:29.064Z,10.63
2023-01-10T07:12:57.745Z,9.13
2023-01-10T07:15:25.854Z,7.38
2023-01-10T07:17:53.906Z,7.10
2023-01-10T07:20:23.102Z,7.03
2023-01-10T07:22:54.526Z,8.80
2023-01-10T07:25:22.378Z,10.82
2023-01-10T07:27:50.568Z,9.88
2023-01-10T07:30:18.810Z,11.10
2023-01-10T07:32:46.971Z,13.50
2023-01-10T07:35:15.114Z,12.48
2023-01-10T07:37:44.425Z,19.52
2023-01-10T07:40:13.214Z,15.35
2023-01-10T07:42:41.331Z,13.38
2023-01-10T07:45:09.915Z,21.90
2023-01-10T07:47:37.981Z,16.50
2023-01-10T07:50:06.706Z,12.48
2023-01-10T07:52:34.776Z,16.98
2023-01-10T07:55:03.903Z,16.98
2023-01-10T07:57:32.029Z,21.15
2023-01-10T07:59:59.764Z,20.77
2023-01-10T08:02:27.966Z,21.92
2023-01-10T08:04:56.047Z,24.35
2023-01-10T08:07:24.018Z,18.45
2023-01-10T08:09:51.706Z,23.30
2023-01-10T08:12:21.759Z,19.02
2023-01-10T08:14:49.503Z,19.02
2023-01-10T08:17:17.515Z,19.63
2023-01-10T08:19:45.873Z,18.92
2023-01-10T08:22:14.289Z,22.15
2023-01-10T08:24:41.979Z,23.25
2023-01-10T08:27:10.278Z,25.48
2023-01-10T08:29:39.314Z,23.48
2023-01-10T08:32:07.342Z,24.05
2023-01-10T08:34:35.368Z,18.45
2023-01-10T08:37:03.499Z,18.13
2023-01-10T08:39:31.409Z,24.50
2023-01-10T08:41:59.668Z,27.65
2023-01-10T08:44:27.623Z,31.27
2023-01-10T08:46:57.290Z,26.60
2023-01-10T08:49:25.526Z,28.83
2023-01-10T08:51:53.490Z,30.08
2023-01-10T08:54:21.215Z,29.55
2023-01-10T08:56:49.879Z,27.35
2023-01-10T08:59:17.772Z,28.52
2023-01-10T09:01:46.214Z,26.27
2023-01-10T09:04:15.467Z,30.70
2023-01-10T09:06:43.658Z,31.48
2023-01-10T09:09:11.438Z,35.97
2023-01-10T09:11:41.807Z,43.38
2023-01-10T09:14:09.793Z,34.28
2023-01-10T09:16:37.812Z,43.70
2023-01-10T09:19:05.712Z,29.73
2023-01-10T09:21:35.151Z,34.47
2023-01-10T09:24:02.950Z,32.50
2023-01-10T09:26:31.640Z,36.47
2023-01-10T09:28:59.605Z,35.95
2023-01-10T09:31:27.660Z,42.53
2023-01-10T09:33:55.477Z,50.08
2023-01-10T09:36:23.628Z,49.08
2023-01-10T09:38:52.722Z,45.15
2023-01-10T09:41:36.889Z,44.92
2023-01-10T09:44:07.442Z,40.22
2023-01-10T09:46:45.764Z,48.85
2023-01-10T09:49:21.669Z,58.78
2023-01-10T09:51:52.921Z,50.55
2023-01-10T09:54:28.214Z,41.05
2023-01-10T09:56:59.094Z,41.35
2023-01-10T09:59:37.656Z,39.08
2023-01-10T10:02:18.304Z,38.13
2023-01-10T10:04:54.715Z,37.92
2023-01-10T10:07:22.885Z,38.00
2023-01-10T10:09:52.075Z,41.15
2023-01-10T10:12:32.162Z,46.63
2023-01-10T10:15:10.505Z,37.80
2023-01-10T10:17:46.995Z,40.38
2023-01-10T10:20:28.960Z,45.17
2023-01-10T10:23:13.088Z,41.22
2023-01-10T10:25:58.414Z,38.53
2023-01-10T10:28:54.055Z,41.20
2023-01-10T10:31:35.042Z,36.38
2023-01-10T10:34:11.886Z,30.88
2023-01-10T10:36:46.801Z,33.92
2023-01-10T10:39:19.854Z,38.60
2023-01-10T10:41:52.612Z,34.10
2023-01-10T10:44:33.752Z,36.72
2023-01-10T10:47:02.285Z,37.20
2023-01-10T10:49:39.408Z,31.85
2023-01-10T10:52:18.834Z,25.23
2023-01-10T10:54:47.827Z,21.85
2023-01-10T10:57:17.443Z,23.08
2023-01-10T10:59:49.050Z,23.80
2023-01-10T11:02:28.454Z,22.93
2023-01-10T11:04:59.379Z,19.33
2023-01-10T11:07:30.677Z,26.45
2023-01-10T11:10:08.291Z,29.45
2023-01-10T11:12:42.040Z,21.80
2023-01-10T11:15:11.153Z,26.08
2023-01-10T11:17:41.071Z,24.50
2023-01-10T11:20:17.030Z,22.77
2023-01-10T11:22:49.159Z,23.58
2023-01-10T11:25:19.592Z,18.75
2023-01-10T11:27:52.496Z,21.23
2023-01-10T11:30:23.579Z,16.35
2023-01-10T11:32:54.645Z,19.98
2023-01-10T11:35:26.147Z,20.45
2023-01-10T11:38:02.166Z,16.25
2023-01-10T11:40:31.065Z,20.45
2023-01-10T11:43:22.063Z,15.40
2023-01-10T11:45:55.669Z,18.40
2023-01-10T11:48:56.068Z,21.52
2023-01-10T11:51:20.216Z,21.58
2023-01-10T11:53:51.319Z,26.27
2023-01-10T11:56:28.109Z,18.55
2023-01-10T11:58:59.788Z,18.33
2023-01-10T12:01:38.786Z,11.73
2023-01-10T12:04:07.134Z,11.65
2023-01-10T12:06:35.624Z,11.02
2023-01-10T12:09:03.936Z,13.70
2023-01-10T12:11:35.721Z,16.45
2023-01-10T12:14:20.392Z,20.83
2023-01-10T12:16:49.452Z,23.42
2023-01-10T12:19:19.350Z,22.48
2023-01-10T12:21:47.371Z,17.20
2023-01-10T12:24:21.154Z,20.30
2023-01-10T12:26:51.214Z,22.70
2023-01-10T12:29:24.812Z,35.00
2023-01-10T12:31:55.340Z,21.85
2023-01-10T12:34:27.027Z,26.67
2023-01-10T12:37:02.151Z,28.70
2023-01-10T12:39:34.819Z,26.98
2023-01-10T12:42:37.573Z,26.70
2023-01-10T12:45:11.156Z,26.23
2023-01-10T12:47:50.835Z,28.38
2023-01-10T12:50:24.979Z,30.00
2023-01-10T12:52:58.837Z,34.00
2023-01-10T12:55:30.636Z,33.00
2023-01-10T12:58:02.694Z,31.75
2023-01-10T13:00:40.548Z,34.58
2023-01-10T13:03:21.675Z,36.85
2023-01-10T13:05:52.034Z,39.03
2023-01-10T13:08:25.013Z,40.50
2023-01-10T13:10:55.334Z,47.78
2023-01-10T13:13:31.523Z,46.45
2023-01-10T13:16:16.483Z,52.65
2023-01-10T13:19:00.721Z,39.22
2023-01-10T13:21:29.695Z,37.10
2023-01-10T13:24:00.639Z,28.17
2023-01-10T13:26:28.584Z,29.35
2023-01-10T13:28:59.544Z,29.92
2023-01-10T13:31:32.335Z,24.05
2023-01-10T13:34:05.950Z,25.42
2023-01-10T13:36:38.925Z,28.92
2023-01-10T13:39:20.077Z,28.05
2023-01-10T13:42:44.568Z,25.77
2023-01-10T13:45:22.038Z,33.08
2023-01-10T13:48:06.168Z,96.03
2023-01-10T13:51:14.072Z,71.03
2023-01-10T13:53:55.809Z,54.95
2023-01-10T13:56:39.248Z,60.67
2023-01-10T13:59:30.948Z,54.03
2023-01-10T14:02:33.957Z,57.60
2023-01-10T14:05:05.725Z,70.38
2023-01-10T14:07:44.140Z,80.55
2023-01-10T14:10:24.126Z,88.05
2023-01-10T14:12:56.493Z,87.05
2023-01-10T14:15:27.188Z,83.47
2023-01-10T14:17:59.514Z,78.57
2023-01-10T14:20:31.109Z,83.95
2023-01-10T14:23:03.439Z,93.00
2023-01-10T14:25:34.389Z,93.07
2023-01-10T14:28:03.832Z,97.47
2023-01-10T14:30:34.402Z,98.97
2023-01-10T14:33:08.044Z,97.60
2023-01-10T14:35:43.113Z,94.72
2023-01-10T14:38:20.830Z,87.60
2023-01-10T14:40:52.227Z,98.18
2023-01-10T14:43:24.722Z,76.47
2023-01-10T14:48:29.322Z,80.60
2023-01-10T14:51:18.500Z,82.35
2023-01-10T14:53:46.763Z,81.60
2023-01-10T14:56:20.523Z,82.05
2023-01-10T14:58:48.741Z,82.97
2023-01-10T15:01:23.324Z,76.70
2023-01-10T15:03:52.597Z,68.40
2023-01-10T15:06:22.879Z,76.03
2023-01-10T15:09:03.757Z,83.82
2023-01-10T15:11:33.474Z,73.95
2023-01-10T15:14:08.477Z,70.22
2023-01-10T15:16:38.871Z,78.15
2023-01-10T15:19:07.132Z,66.35
2023-01-10T15:21:43.368Z,73.10
2023-01-10T15:24:31.558Z,72.22
2023-01-10T15:27:02.540Z,73.22
2023-01-10T15:29:31.340Z,79.95
2023-01-10T15:32:09.239Z,77.85
2023-01-10T15:34:38.997Z,81.05
2023-01-10T15:37:18.055Z,82.00
2023-01-10T15:39:48.023Z,91.50
2023-01-10T15:42:15.794Z,76.95
2023-01-10T15:44:45.974Z,78.28
2023-01-10T15:47:40.474Z,79.80
2023-01-10T15:50:20.908Z,92.20
2023-01-10T15:52:51.814Z,96.82
2023-01-10T15:55:38.722Z,96.10
2023-01-10T15:58:14.589Z,81.38
2023-01-10T16:00:44.783Z,92.97
2023-01-10T16:03:23.119Z,104.70
2023-01-10T16:05:54.879Z,99.65
2023-01-10T16:08:26.780Z,96.55
2023-01-10T16:10:58.387Z,87.40
2023-01-10T16:13:28.285Z,94.93
2023-01-10T16:15:57.454Z,88.95
2023-01-10T16:18:26.307Z,92.75
2023-01-10T16:20:57.108Z,81.40
2023-01-10T16:23:29.382Z,87.35
2023-01-10T16:26:00.130Z,79.90
2023-01-10T16:28:30.932Z,79.97
2023-01-10T16:30:59.051Z,81.53
2023-01-10T16:33:27.787Z,79.85
2023-01-10T16:35:58.236Z,78.50
2023-01-10T16:38:29.417Z,71.25
2023-01-10T16:40:59.782Z,80.27
2023-01-10T16:43:29.111Z,73.78
2023-01-10T16:46:00.364Z,80.78
2023-01-10T16:48:30.398Z,78.78
2023-01-10T16:51:19.277Z,75.55
2023-01-10T16:53:48.747Z,86.70
2023-01-10T16:56:18.712Z,81.07
2023-01-10T16:58:48.013Z,81.25
2023-01-10T17:01:19.347Z,84.90
2023-01-10T17:03:48.424Z,86.90
2023-01-10T17:06:16.788Z,76.57
2023-01-10T17:08:45.667Z,85.70
2023-01-10T17:11:18.705Z,86.10
2023-01-10T17:13:47.217Z,84.32
2023-01-10T17:16:19.305Z,89.65
2023-01-10T17:18:47.841Z,89.13
2023-01-10T17:21:17.489Z,81.82
2023-01-10T17:23:45.748Z,82.35
2023-01-10T17:26:16.885Z,97.13
2023-01-10T17:28:46.492Z,104.77
2023-01-10T17:31:14.267Z,102.40
2023-01-10T17:33:42.229Z,102.07
2023-01-10T17:36:11.527Z,106.38
2023-01-10T17:38:40.087Z,106.65
2023-01-10T17:41:08.197Z,105.15
2023-01-10T17:43:39.191Z,92.72
2023-01-10T17:46:07.558Z,104.10
2023-01-10T17:48:36.765Z,101.43
2023-01-10T17:51:06.131Z,108.65
2023-01-10T17:53:34.728Z,105.20
2023-01-10T17:56:03.155Z,102.95
2023-01-10T17:58:31.279Z,113.70
2023-01-10T18:01:00.626Z,110.97
2023-01-10T18:03:28.883Z,112.38
2023-01-10T18:05:58.681Z,132.13
2023-01-10T18:08:27.305Z,123.40
2023-01-10T18:10:59.957Z,125.47
2023-01-10T18:13:30.287Z,134.27
2023-01-10T18:16:00.339Z,144.40
2023-01-10T18:18:29.214Z,137.02
2023-01-10T18:21:00.862Z,139.07
2023-01-10T18:23:30.664Z,132.80
2023-01-10T18:26:00.649Z,138.90
2023-01-10T18:28:40.423Z,145.73
2023-01-10T18:31:12.515Z,137.82
2023-01-10T18:33:41.018Z,130.30
2023-01-10T18:36:14.172Z,132.30
2023-01-10T18:38:43.047Z,128.80
2023-01-10T18:41:10.960Z,128.73
2023-01-10T18:43:39.344Z,115.38
2023-01-10T18:46:09.042Z,122.18
2023-01-10T18:48:38.437Z,116.28
2023-01-10T18:51:08.860Z,114.47
2023-01-10T18:53:37.020Z,109.70
2023-01-10T18:56:06.360Z,110.57
2023-01-10T18:58:36.304Z,104.75
2023-01-10T19:01:08.574Z,115.20
2023-01-10T19:03:38.627Z,108.93
2023-01-10T19:06:08.067Z,115.43
2023-01-10T19:08:38.059Z,123.20
2023-01-10T19:11:15.453Z,119.43
2023-01-10T19:13:44.475Z,116.18
2023-01-10T19:16:14.460Z,118.15
2023-01-10T19:18:44.494Z,117.45
2023-01-10T19:21:15.274Z,110.25
2023-01-10T19:23:44.173Z,104.40
2023-01-10T19:26:12.372Z,108.47
2023-01-10T19:28:41.378Z,112.68
2023-01-10T19:31:09.412Z,107.90
2023-01-10T19:33:38.328Z,116.07
2023-01-10T19:36:08.854Z,118.78
2023-01-10T19:38:37.539Z,121.45
2023-01-10T19:41:05.403Z,127.47
2023-01-10T19:43:34.058Z,127.43
2023-01-10T19:46:06.351Z,124.80
2023-01-10T19:48:37.841Z,125.07
2023-01-10T19:51:09.030Z,108.77
2023-01-10T19:53:40.882Z,123.70
2023-01-10T19:56:10.327Z,121.97
2023-01-10T19:58:39.729Z,125.13
2023-01-10T20:01:09.521Z,124.03
2023-01-10T20:03:38.618Z,131.20
2023-01-10T20:06:09.120Z,126.20
2023-01-10T20:08:37.369Z,127.53
2023-01-10T20:11:07.117Z,126.45
2023-01-10T20:13:37.154Z,134.10
2023-01-10T20:16:05.721Z,127.53
2023-01-10T20:18:34.709Z,126.38
2023-01-10T20:21:06.160Z,136.40
2023-01-10T20:23:35.768Z,132.93
2023-01-10T20:26:06.512Z,133.98
2023-01-10T20:28:35.075Z,128.05
2023-01-10T20:31:03.401Z,134.73
2023-01-10T20:33:34.543Z,135.23
2023-01-10T20:36:04.623Z,133.70
2023-01-10T20:38:36.396Z,130.25
2023-01-10T20:41:06.713Z,124.97
2023-01-10T20:43:35.726Z,118.53
2023-01-10T20:46:07.681Z,129.65
2023-01-10T20:48:35.868Z,135.80
2023-01-10T20:51:04.414Z,126.30
2023-01-10T20:53:33.135Z,130.23
2023-01-10T20:56:04.897Z,125.20
2023-01-10T20:58:35.070Z,122.78
2023-01-10T21:01:03.338Z,115.82
2023-01-10T21:03:31.389Z,119.00
2023-01-10T21:06:00.320Z,116.90
2023-01-10T21:08:29.572Z,112.40
2023-01-10T21:10:58.267Z,105.90
2023-01-10T21:13:28.039Z,107.93
2023-01-10T21:15:57.605Z,102.72
2023-01-10T21:18:27.074Z,99.53
2023-01-10T21:20:56.883Z,102.78
2023-01-10T21:23:26.335Z,94.97
2023-01-10T21:25:55.394Z,89.78
2023-01-10T21:28:23.570Z,94.40
2023-01-10T21:30:53.654Z,97.22
2023-01-10T21:33:21.955Z,100.05
2023-01-10T21:35:53.217Z,103.18
2023-01-10T21:38:21.571Z,99.73
2023-01-10T21:40:49.447Z,97.95
2023-01-10T21:43:17.694Z,95.75
2023-01-10T21:45:45.755Z,101.30
2023-01-10T21:48:15.118Z,95.43
2023-01-10T21:50:44.725Z,93.95
2023-01-10T21:53:12.707Z,94.78
2023-01-10T21:55:40.497Z,97.28
2023-01-10T21:58:08.670Z,91.45
2023-01-10T22:00:36.555Z,90.00
2023-01-10T22:03:06.286Z,97.85
2023-01-10T22:05:36.049Z,97.47
2023-01-10T22:08:04.048Z,102.68
2023-01-10T22:10:31.777Z,99.00
2023-01-10T22:13:00.015Z,101.13
2023-01-10T22:15:28.051Z,91.20
2023-01-10T22:17:58.051Z,92.82
2023-01-10T22:20:25.969Z,98.30
2023-01-10T22:22:55.309Z,100.55
2023-01-10T22:25:22.983Z,106.28
2023-01-10T22:27:53.350Z,98.85
2023-01-10T22:30:21.068Z,106.80
2023-01-10T22:32:49.069Z,103.55
2023-01-10T22:35:17.164Z,103.80
2023-01-10T22:37:45.196Z,106.13
2023-01-10T22:40:14.393Z,107.55
2023-01-10T22:42:42.562Z,108.25
2023-01-10T22:45:11.182Z,105.30
2023-01-10T22:47:39.329Z,97.53
2023-01-10T22:50:08.452Z,91.63
2023-01-10T22:52:36.466Z,99.00
2023-01-10T22:55:04.486Z,90.88
2023-01-10T22:57:46.191Z,94.57
2023-01-10T23:00:15.835Z,86.80
2023-01-10T23:02:44.205Z,88.93
2023-01-10T23:05:12.006Z,86.97
2023-01-10T23:07:39.982Z,89.28
2023-01-10T23:10:20.489Z,85.70
2023-01-10T23:12:57.824Z,92.25
2023-01-10T23:15:26.229Z,85.50
2023-01-10T23:17:54.227Z,78.25
2023-01-10T23:20:21.976Z,81.22
2023-01-10T23:22:50.240Z,88.07
2023-01-10T23:25:18.395Z,88.90
2023-01-10T23:27:46.390Z,83.50
2023-01-10T23:30:16.385Z,96.85
2023-01-10T23:32:44.439Z,88.95
2023-01-10T23:35:12.413Z,89.95
2023-01-10T23:37:40.697Z,92.10
2023-01-10T23:40:09.833Z,89.55
2023-01-10T23:42:37.767Z,96.05
2023-01-10T23:45:06.879Z,95.75
2023-01-10T23:47:36.283Z,106.47
2023-01-10T23:50:04.740Z,115.50
2023-01-10T23:52:33.096Z,102.45
2023-01-10T23:55:00.785Z,110.13
2023-01-10T23:57:28.705Z,118.10
2023-01-10T23:59:59.818Z,110.22
